Pagrindinis puslapis
METAR-TAF:

METAR-TAF

Oro uostai :

Taifas, Saudo Arabija

platuma: 21-29N, ilguma: 040-33E, Aukštis: 1478 m

Dabartinis oras

Ataskaita buvo paskelbta 1 valandą ir 10 minutes, ne 12:00 UTC
Vėjas 5 kt nuo kintamojo kryptimis
Temperatūra 28°C
Drėgmė 23%
Slėgis 1019 hPa
Matomumas 10 km arba daugiau
Mažai debesys ne aukštis 3000 ft

METAR: OETF 281200Z VRB05KT 9999 FEW030 28/05 Q1019 NOSIG

Laikas: 16:10 (13:10 UTC)

Prognozė

Ataskaita buvo paskelbta 2 valandos ir 10 minutes, ne 11:00 UTC
Prognozė galioja nuo 28 metu 12 UTC su 29 metu 18 UTC
Vėjas 14 kt iš Vakarų/Pietvakarių
Matomumas: 6000 m
Tapsmas
nuo 28 metu 18 UTC su 28 metu 20 UTC
Vėjas 10 kt iš Pietų

TAF: OETF 281100Z 2812/2918 25014KT 6000 NSC BECMG 2818/2820 18010KT

Orai ataskaitas ir orų prognozės (METAR, TAF).

turimą stotys yra geltonos ir raudonos taškus žemėlapyje.

Perkelti pele per norėdami pamatyti stoties vardą.

Tada spustelėkite, norėdami matyti oro stebėjimo ir prognozės.

Norėdami pakeisti žemėlapį: spustelėkite ant žalios mygtukų su juodo kryžiaus žemyn,; žalią mygtuką su brūkšneliu, jei norite nutolinti; arba žalių rodyklių gretimoms žemėlapius.


METAR-TAF: